sensor_id;sensor_type;location;lat;lon;timestamp;pressure;altitude;pressure_sealevel;temperature;humidity
82743;BME280;72483;50.656;7.216;2024-02-28T00:00:12;101362.19;;;16.05;47.02
82743;BME280;72483;50.656;7.216;2024-02-28T00:02:38;101361.38;;;16.04;47.06
82743;BME280;72483;50.656;7.216;2024-02-28T00:05:05;101358.59;;;16.04;46.95
82743;BME280;72483;50.656;7.216;2024-02-28T00:07:32;101357.50;;;16.05;47.16
82743;BME280;72483;50.656;7.216;2024-02-28T00:10:00;101361.38;;;16.04;47.19
82743;BME280;72483;50.656;7.216;2024-02-28T00:12:26;101356.66;;;16.05;46.94
82743;BME280;72483;50.656;7.216;2024-02-28T00:14:53;101360.53;;;16.04;46.87
82743;BME280;72483;50.656;7.216;2024-02-28T00:17:21;101368.03;;;16.03;46.83
82743;BME280;72483;50.656;7.216;2024-02-28T00:19:47;101371.06;;;16.01;47.06
82743;BME280;72483;50.656;7.216;2024-02-28T00:22:14;101372.75;;;16.02;47.04
82743;BME280;72483;50.656;7.216;2024-02-28T00:24:40;101380.00;;;16.04;47.15
82743;BME280;72483;50.656;7.216;2024-02-28T00:27:07;101377.47;;;16.02;46.81
82743;BME280;72483;50.656;7.216;2024-02-28T00:29:34;101381.09;;;16.02;46.87
82743;BME280;72483;50.656;7.216;2024-02-28T00:32:00;101380.00;;;16.04;47.06
82743;BME280;72483;50.656;7.216;2024-02-28T00:34:28;101373.84;;;16.01;47.27
82743;BME280;72483;50.656;7.216;2024-02-28T00:36:55;101368.28;;;16.01;47.10
82743;BME280;72483;50.656;7.216;2024-02-28T00:39:21;101371.06;;;16.01;46.89
82743;BME280;72483;50.656;7.216;2024-02-28T00:41:48;101376.88;;;16.00;47.14
82743;BME280;72483;50.656;7.216;2024-02-28T00:44:14;101374.97;;;16.00;46.82
82743;BME280;72483;50.656;7.216;2024-02-28T00:46:41;101379.38;;;16.01;46.79
82743;BME280;72483;50.656;7.216;2024-02-28T00:49:07;101388.84;;;16.00;47.18
82743;BME280;72483;50.656;7.216;2024-02-28T00:51:35;101383.53;;;15.99;47.02
82743;BME280;72483;50.656;7.216;2024-02-28T00:54:02;101392.72;;;15.99;46.76
82743;BME280;72483;50.656;7.216;2024-02-28T00:56:29;101388.25;;;15.98;46.82
82743;BME280;72483;50.656;7.216;2024-02-28T00:58:55;101391.88;;;15.99;46.82
82743;BME280;72483;50.656;7.216;2024-02-28T01:01:22;101394.94;;;15.97;46.79
82743;BME280;72483;50.656;7.216;2024-02-28T01:03:49;101395.72;;;15.98;47.03
82743;BME280;72483;50.656;7.216;2024-02-28T01:06:15;101396.59;;;15.98;46.79
82743;BME280;72483;50.656;7.216;2024-02-28T01:08:43;101404.91;;;15.98;46.84
82743;BME280;72483;50.656;7.216;2024-02-28T01:11:10;101388.75;;;15.95;46.83
82743;BME280;72483;50.656;7.216;2024-02-28T01:13:36;101394.06;;;15.97;47.05
82743;BME280;72483;50.656;7.216;2024-02-28T01:16:03;101392.38;;;15.96;46.84
82743;BME280;72483;50.656;7.216;2024-02-28T01:18:30;101407.13;;;15.96;46.85
82743;BME280;72483;50.656;7.216;2024-02-28T01:20:57;101410.75;;;15.97;47.05
82743;BME280;72483;50.656;7.216;2024-02-28T01:23:24;101405.44;;;15.95;47.12
82743;BME280;72483;50.656;7.216;2024-02-28T01:25:51;101394.31;;;15.95;46.77
82743;BME280;72483;50.656;7.216;2024-02-28T01:28:18;101403.78;;;15.94;46.66
82743;BME280;72483;50.656;7.216;2024-02-28T01:30:44;101404.88;;;15.93;46.77
82743;BME280;72483;50.656;7.216;2024-02-28T01:33:11;101402.66;;;15.95;46.97
82743;BME280;72483;50.656;7.216;2024-02-28T01:35:37;101397.38;;;15.94;46.99
82743;BME280;72483;50.656;7.216;2024-02-28T01:38:04;101401.81;;;15.95;46.74
82743;BME280;72483;50.656;7.216;2024-02-28T01:40:30;101398.22;;;15.94;47.17
82743;BME280;72483;50.656;7.216;2024-02-28T01:43:03;101402.94;;;15.94;47.08
82743;BME280;72483;50.656;7.216;2024-02-28T01:45:30;101404.59;;;15.95;46.91
82743;BME280;72483;50.656;7.216;2024-02-28T01:47:56;101403.78;;;15.94;46.85
82743;BME280;72483;50.656;7.216;2024-02-28T01:50:23;101402.94;;;15.94;47.10
82743;BME280;72483;50.656;7.216;2024-02-28T01:52:50;101403.78;;;15.94;46.73
82743;BME280;72483;50.656;7.216;2024-02-28T01:55:17;101402.94;;;15.94;47.23
82743;BME280;72483;50.656;7.216;2024-02-28T01:57:43;101401.25;;;15.93;47.18
82743;BME280;72483;50.656;7.216;2024-02-28T02:00:13;101392.06;;;15.92;47.14
82743;BME280;72483;50.656;7.216;2024-02-28T02:02:41;101385.41;;;15.93;46.82
82743;BME280;72483;50.656;7.216;2024-02-28T02:05:09;101388.19;;;15.93;46.77
82743;BME280;72483;50.656;7.216;2024-02-28T02:07:36;101393.75;;;15.93;46.96
82743;BME280;72483;50.656;7.216;2024-02-28T02:10:04;101384.56;;;15.93;46.72
82743;BME280;72483;50.656;7.216;2024-02-28T02:12:33;101388.19;;;15.93;46.79
82743;BME280;72483;50.656;7.216;2024-02-28T02:15:00;101382.63;;;15.93;46.67
82743;BME280;72483;50.656;7.216;2024-02-28T02:17:27;101379.84;;;15.93;46.89
82743;BME280;72483;50.656;7.216;2024-02-28T02:19:54;101380.69;;;15.94;47.02
82743;BME280;72483;50.656;7.216;2024-02-28T02:22:21;101394.84;;;15.92;46.73
82743;BME280;72483;50.656;7.216;2024-02-28T02:24:50;101399.31;;;15.93;47.04
82743;BME280;72483;50.656;7.216;2024-02-28T02:27:17;101404.00;;;15.93;46.69
82743;BME280;72483;50.656;7.216;2024-02-28T02:29:43;101397.63;;;15.92;47.00
82743;BME280;72483;50.656;7.216;2024-02-28T02:32:09;101396.53;;;15.93;46.89
82743;BME280;72483;50.656;7.216;2024-02-28T02:34:35;101392.91;;;15.93;46.68
82743;BME280;72483;50.656;7.216;2024-02-28T02:37:02;101382.63;;;15.93;47.09
82743;BME280;72483;50.656;7.216;2024-02-28T02:39:29;101385.41;;;15.93;47.03
82743;BME280;72483;50.656;7.216;2024-02-28T02:41:57;101371.75;;;15.92;47.05
82743;BME280;72483;50.656;7.216;2024-02-28T02:44:23;101383.47;;;15.94;47.00
82743;BME280;72483;50.656;7.216;2024-02-28T02:46:50;101385.41;;;15.93;46.88
82743;BME280;72483;50.656;7.216;2024-02-28T02:49:17;101391.81;;;15.94;46.92
82743;BME280;72483;50.656;7.216;2024-02-28T02:51:44;101374.31;;;15.93;46.92
82743;BME280;72483;50.656;7.216;2024-02-28T02:54:10;101376.22;;;15.93;47.01
82743;BME280;72483;50.656;7.216;2024-02-28T02:56:37;101368.75;;;15.93;47.00
82743;BME280;72483;50.656;7.216;2024-02-28T02:59:04;101374.31;;;15.93;46.66
82743;BME280;72483;50.656;7.216;2024-02-28T03:01:31;101380.69;;;15.94;46.76
82743;BME280;72483;50.656;7.216;2024-02-28T03:03:57;101385.41;;;15.93;46.92
82743;BME280;72483;50.656;7.216;2024-02-28T03:06:24;101396.53;;;15.93;46.99
82743;BME280;72483;50.656;7.216;2024-02-28T03:08:50;101386.50;;;15.92;46.85
82743;BME280;72483;50.656;7.216;2024-02-28T03:11:17;101384.56;;;15.93;46.94
82743;BME280;72483;50.656;7.216;2024-02-28T03:13:44;101394.59;;;15.94;47.00
82743;BME280;72483;50.656;7.216;2024-02-28T03:16:12;101401.25;;;15.93;46.94
82743;BME280;72483;50.656;7.216;2024-02-28T03:18:38;101398.22;;;15.94;47.09
82743;BME280;72483;50.656;7.216;2024-02-28T03:21:05;101397.38;;;15.94;46.72
82743;BME280;72483;50.656;7.216;2024-02-28T03:23:32;101390.97;;;15.93;46.67
82743;BME280;72483;50.656;7.216;2024-02-28T03:26:01;101390.97;;;15.93;46.49
82743;BME280;72483;50.656;7.216;2024-02-28T03:28:28;101395.69;;;15.93;46.62
82743;BME280;72483;50.656;7.216;2024-02-28T03:30:55;101401.25;;;15.93;46.48
82743;BME280;72483;50.656;7.216;2024-02-28T03:33:23;101411.25;;;15.94;46.88
82743;BME280;72483;50.656;7.216;2024-02-28T03:35:50;101412.34;;;15.93;46.64
82743;BME280;72483;50.656;7.216;2024-02-28T03:38:16;101406.78;;;15.93;46.58
82743;BME280;72483;50.656;7.216;2024-02-28T03:40:43;101404.28;;;15.91;47.10
82743;BME280;72483;50.656;7.216;2024-02-28T03:43:09;101409.00;;;15.91;46.67
82743;BME280;72483;50.656;7.216;2024-02-28T03:45:39;101419.00;;;15.92;46.85
82743;BME280;72483;50.656;7.216;2024-02-28T03:48:06;101411.50;;;15.92;46.59
82743;BME280;72483;50.656;7.216;2024-02-28T03:50:34;101418.75;;;15.93;46.55
82743;BME280;72483;50.656;7.216;2024-02-28T03:53:00;101424.31;;;15.93;46.76
82743;BME280;72483;50.656;7.216;2024-02-28T03:55:27;101419.84;;;15.92;46.72
82743;BME280;72483;50.656;7.216;2024-02-28T03:57:54;101425.41;;;15.92;46.52
82743;BME280;72483;50.656;7.216;2024-02-28T04:00:20;101424.31;;;15.93;46.60
82743;BME280;72483;50.656;7.216;2024-02-28T04:02:47;101429.03;;;15.93;46.50
82743;BME280;72483;50.656;7.216;2024-02-28T04:05:13;101435.44;;;15.93;46.55
82743;BME280;72483;50.656;7.216;2024-02-28T04:07:41;101433.72;;;15.92;46.76
82743;BME280;72483;50.656;7.216;2024-02-28T04:10:08;101432.88;;;15.92;46.56
82743;BME280;72483;50.656;7.216;2024-02-28T04:12:36;101429.03;;;15.93;46.84
82743;BME280;72483;50.656;7.216;2024-02-28T04:15:03;101439.28;;;15.92;46.65
82743;BME280;72483;50.656;7.216;2024-02-28T04:17:30;101444.00;;;15.92;46.56
82743;BME280;72483;50.656;7.216;2024-02-28T04:19:56;101453.19;;;15.92;46.52
82743;BME280;72483;50.656;7.216;2024-02-28T04:22:23;101445.97;;;15.91;46.51
82743;BME280;72483;50.656;7.216;2024-02-28T04:24:51;101456.81;;;15.93;46.69
82743;BME280;72483;50.656;7.216;2024-02-28T04:27:18;101453.19;;;15.92;46.78
82743;BME280;72483;50.656;7.216;2024-02-28T04:29:44;101454.03;;;15.93;46.78
82743;BME280;72483;50.656;7.216;2024-02-28T04:32:11;101452.34;;;15.92;46.49
82743;BME280;72483;50.656;7.216;2024-02-28T04:34:37;101455.13;;;15.92;46.58
82743;BME280;72483;50.656;7.216;2024-02-28T04:37:04;101454.03;;;15.93;46.63
82743;BME280;72483;50.656;7.216;2024-02-28T04:39:30;101439.56;;;15.91;46.47
82743;BME280;72483;50.656;7.216;2024-02-28T04:41:58;101439.56;;;15.91;46.75
82743;BME280;72483;50.656;7.216;2024-02-28T04:44:25;101452.34;;;15.92;46.67
82743;BME280;72483;50.656;7.216;2024-02-28T04:46:51;101455.97;;;15.92;46.67
82743;BME280;72483;50.656;7.216;2024-02-28T04:49:18;101461.50;;;15.92;46.46
82743;BME280;72483;50.656;7.216;2024-02-28T04:51:45;101459.84;;;15.91;46.67
82743;BME280;72483;50.656;7.216;2024-02-28T04:54:11;101467.91;;;15.93;46.45
82743;BME280;72483;50.656;7.216;2024-02-28T04:56:39;101472.63;;;15.92;46.36
82743;BME280;72483;50.656;7.216;2024-02-28T04:59:07;101470.69;;;15.93;46.75
82743;BME280;72483;50.656;7.216;2024-02-28T05:01:34;101469.00;;;15.92;46.53
82743;BME280;72483;50.656;7.216;2024-02-28T05:04:00;101483.75;;;15.92;46.31
82743;BME280;72483;50.656;7.216;2024-02-28T05:06:27;101483.50;;;15.94;46.55
82743;BME280;72483;50.656;7.216;2024-02-28T05:08:53;101490.16;;;15.93;46.37
82743;BME280;72483;50.656;7.216;2024-02-28T05:11:20;101482.91;;;15.92;46.37
82743;BME280;72483;50.656;7.216;2024-02-28T05:13:46;101490.16;;;15.93;46.35
82743;BME280;72483;50.656;7.216;2024-02-28T05:16:15;101493.19;;;15.91;46.30
82743;BME280;72483;50.656;7.216;2024-02-28T05:18:41;101498.75;;;15.91;46.65
82743;BME280;72483;50.656;7.216;2024-02-28T05:21:08;101497.91;;;15.91;46.57
82743;BME280;72483;50.656;7.216;2024-02-28T05:23:34;101507.09;;;15.91;46.32
82743;BME280;72483;50.656;7.216;2024-02-28T05:26:01;101501.53;;;15.91;46.75
82743;BME280;72483;50.656;7.216;2024-02-28T05:28:29;101502.63;;;15.90;46.43
82743;BME280;72483;50.656;7.216;2024-02-28T05:30:55;101508.16;;;15.90;46.34
82743;BME280;72483;50.656;7.216;2024-02-28T05:33:23;101507.09;;;15.91;46.37
82743;BME280;72483;50.656;7.216;2024-02-28T05:35:50;101504.31;;;15.91;46.55
82743;BME280;72483;50.656;7.216;2024-02-28T05:38:16;101502.63;;;15.90;46.35
82743;BME280;72483;50.656;7.216;2024-02-28T05:40:43;101507.31;;;15.90;46.45
82743;BME280;72483;50.656;7.216;2024-02-28T05:43:09;101510.94;;;15.90;46.25
82743;BME280;72483;50.656;7.216;2024-02-28T05:45:35;101514.81;;;15.89;46.71
82743;BME280;72483;50.656;7.216;2024-02-28T05:48:02;101519.00;;;15.92;46.41
82743;BME280;72483;50.656;7.216;2024-02-28T05:50:30;101512.66;;;15.91;46.40
82743;BME280;72483;50.656;7.216;2024-02-28T05:52:58;101524.56;;;15.92;46.27
82743;BME280;72483;50.656;7.216;2024-02-28T05:55:24;101522.63;;;15.92;46.26
82743;BME280;72483;50.656;7.216;2024-02-28T05:57:51;101519.63;;;15.94;46.31
82743;BME280;72483;50.656;7.216;2024-02-28T06:00:18;101526.25;;;15.93;46.44
82743;BME280;72483;50.656;7.216;2024-02-28T06:02:45;101527.97;;;15.94;46.54
82743;BME280;72483;50.656;7.216;2024-02-28T06:05:11;101526.84;;;15.95;46.43
82743;BME280;72483;50.656;7.216;2024-02-28T06:07:40;101535.16;;;15.95;46.28
82743;BME280;72483;50.656;7.216;2024-02-28T06:10:07;101532.16;;;15.96;46.48
82743;BME280;72483;50.656;7.216;2024-02-28T06:12:35;101538.81;;;15.95;46.33
82743;BME280;72483;50.656;7.216;2024-02-28T06:15:02;101548.56;;;15.98;46.11
82743;BME280;72483;50.656;7.216;2024-02-28T06:17:30;101553.03;;;15.99;46.02
82743;BME280;72483;50.656;7.216;2024-02-28T06:19:57;101556.66;;;15.99;46.30
82743;BME280;72483;50.656;7.216;2024-02-28T06:22:23;101550.00;;;16.00;45.98
82743;BME280;72483;50.656;7.216;2024-02-28T06:24:51;101558.34;;;16.00;46.43
82743;BME280;72483;50.656;7.216;2024-02-28T06:27:17;101553.59;;;16.01;46.37
82743;BME280;72483;50.656;7.216;2024-02-28T06:29:44;101555.56;;;16.00;46.45
82743;BME280;72483;50.656;7.216;2024-02-28T06:32:10;101562.78;;;16.01;46.04
82743;BME280;72483;50.656;7.216;2024-02-28T06:34:37;101564.25;;;16.04;46.53
82743;BME280;72483;50.656;7.216;2024-02-28T06:37:03;101568.69;;;16.05;46.14
82743;BME280;72483;50.656;7.216;2024-02-28T06:39:30;101571.72;;;16.04;46.08
82743;BME280;72483;50.656;7.216;2024-02-28T06:41:58;101577.03;;;16.05;46.23
82743;BME280;72483;50.656;7.216;2024-02-28T06:44:24;101581.50;;;16.06;45.95
82743;BME280;72483;50.656;7.216;2024-02-28T06:46:51;101587.91;;;16.07;46.38
82743;BME280;72483;50.656;7.216;2024-02-28T06:49:17;101584.00;;;16.08;46.51
82743;BME280;72483;50.656;7.216;2024-02-28T06:51:44;101591.53;;;16.07;46.39
82743;BME280;72483;50.656;7.216;2024-02-28T06:54:10;101585.13;;;16.07;46.33
82743;BME280;72483;50.656;7.216;2024-02-28T06:56:37;101599.00;;;16.07;46.22
82743;BME280;72483;50.656;7.216;2024-02-28T06:59:05;101590.69;;;16.07;46.57
82743;BME280;72483;50.656;7.216;2024-02-28T07:01:32;101598.75;;;16.08;46.27
82743;BME280;72483;50.656;7.216;2024-02-28T07:03:58;101584.84;;;16.08;46.20
82743;BME280;72483;50.656;7.216;2024-02-28T07:06:25;101586.78;;;16.08;46.42
82743;BME280;72483;50.656;7.216;2024-02-28T07:08:51;101582.06;;;16.08;46.39
82743;BME280;72483;50.656;7.216;2024-02-28T07:11:18;101587.63;;;16.08;46.22
82743;BME280;72483;50.656;7.216;2024-02-28T07:13:44;101581.22;;;16.08;46.20
82743;BME280;72483;50.656;7.216;2024-02-28T07:16:12;101582.91;;;16.09;46.42
82743;BME280;72483;50.656;7.216;2024-02-28T07:18:39;101577.34;;;16.09;46.28
82743;BME280;72483;50.656;7.216;2024-02-28T07:21:05;101585.69;;;16.09;46.15
82743;BME280;72483;50.656;7.216;2024-02-28T07:23:33;101582.91;;;16.09;46.40
82743;BME280;72483;50.656;7.216;2024-02-28T07:25:59;101582.06;;;16.08;46.47
82743;BME280;72483;50.656;7.216;2024-02-28T07:28:26;101585.69;;;16.09;46.20
82743;BME280;72483;50.656;7.216;2024-02-28T07:30:52;101583.75;;;16.09;46.63
82743;BME280;72483;50.656;7.216;2024-02-28T07:33:20;101586.78;;;16.08;46.42
82743;BME280;72483;50.656;7.216;2024-02-28T07:35:47;101590.41;;;16.08;46.28
82743;BME280;72483;50.656;7.216;2024-02-28T07:38:14;101596.25;;;16.07;46.49
82743;BME280;72483;50.656;7.216;2024-02-28T07:40:42;101605.41;;;16.07;46.09
82743;BME280;72483;50.656;7.216;2024-02-28T07:43:09;101616.53;;;16.07;46.44
82743;BME280;72483;50.656;7.216;2024-02-28T07:45:35;101624.59;;;16.09;46.20
82743;BME280;72483;50.656;7.216;2024-02-28T07:48:02;101628.47;;;16.08;46.21
82743;BME280;72483;50.656;7.216;2024-02-28T07:50:30;101622.91;;;16.08;46.58
82743;BME280;72483;50.656;7.216;2024-02-28T07:52:56;101622.09;;;16.07;46.69
82743;BME280;72483;50.656;7.216;2024-02-28T07:55:23;101624.03;;;16.07;46.55
82743;BME280;72483;50.656;7.216;2024-02-28T07:57:51;101629.59;;;16.07;46.59
82743;BME280;72483;50.656;7.216;2024-02-28T08:00:16;101632.38;;;16.07;46.40
82743;BME280;72483;50.656;7.216;2024-02-28T08:02:44;101636.81;;;16.08;46.32
82743;BME280;72483;50.656;7.216;2024-02-28T08:05:11;101631.53;;;16.06;46.33
82743;BME280;72483;50.656;7.216;2024-02-28T08:07:38;101642.38;;;16.08;46.24
82743;BME280;72483;50.656;7.216;2024-02-28T08:10:06;101632.59;;;16.05;46.29
82743;BME280;72483;50.656;7.216;2024-02-28T08:12:32;101632.38;;;16.07;46.16
82743;BME280;72483;50.656;7.216;2024-02-28T08:14:59;101630.66;;;16.06;46.13
82743;BME280;72483;50.656;7.216;2024-02-28T08:17:25;101625.13;;;16.06;46.18
82743;BME280;72483;50.656;7.216;2024-02-28T08:19:52;101635.13;;;16.07;46.15
82743;BME280;72483;50.656;7.216;2024-02-28T08:22:19;101641.78;;;16.06;46.56
82743;BME280;72483;50.656;7.216;2024-02-28T08:24:50;101642.88;;;16.05;46.46
82743;BME280;72483;50.656;7.216;2024-02-28T08:27:17;101640.69;;;16.07;46.13
82743;BME280;72483;50.656;7.216;2024-02-28T08:29:43;101644.56;;;16.06;46.24
82743;BME280;72483;50.656;7.216;2024-02-28T08:32:11;101639.84;;;16.06;46.15
82743;BME280;72483;50.656;7.216;2024-02-28T08:34:37;101646.50;;;16.05;46.14
82743;BME280;72483;50.656;7.216;2024-02-28T08:37:04;101652.31;;;16.04;45.96
82743;BME280;72483;50.656;7.216;2024-02-28T08:39:30;101648.19;;;16.06;45.96
82743;BME280;72483;50.656;7.216;2024-02-28T08:41:58;101656.75;;;16.05;45.99
82743;BME280;72483;50.656;7.216;2024-02-28T08:44:25;101655.94;;;16.04;46.32
82743;BME280;72483;50.656;7.216;2024-02-28T08:46:51;101663.16;;;16.05;46.17
82743;BME280;72483;50.656;7.216;2024-02-28T08:49:18;101667.88;;;16.05;46.32
82743;BME280;72483;50.656;7.216;2024-02-28T08:51:44;101667.13;;;16.09;46.13
82743;BME280;72483;50.656;7.216;2024-02-28T08:54:10;101656.88;;;16.10;45.98
82743;BME280;72483;50.656;7.216;2024-02-28T08:56:37;101667.13;;;16.09;46.03
82743;BME280;72483;50.656;7.216;2024-02-28T08:59:05;101664.09;;;16.11;46.24
82743;BME280;72483;50.656;7.216;2024-02-28T09:01:31;101664.59;;;16.08;46.06
82743;BME280;72483;50.656;7.216;2024-02-28T09:03:59;101668.00;;;16.10;46.05
82743;BME280;72483;50.656;7.216;2024-02-28T09:06:25;101671.34;;;16.12;46.14
82743;BME280;72483;50.656;7.216;2024-02-28T09:08:52;101662.16;;;16.11;45.86
82743;BME280;72483;50.656;7.216;2024-02-28T09:11:18;101662.16;;;16.11;45.93
82743;BME280;72483;50.656;7.216;2024-02-28T09:13:45;101665.78;;;16.12;46.22
82743;BME280;72483;50.656;7.216;2024-02-28T09:16:31;101672.78;;;16.14;45.94
82743;BME280;72483;50.656;7.216;2024-02-28T09:18:58;101676.41;;;16.15;46.14
82743;BME280;72483;50.656;7.216;2024-02-28T09:21:24;101671.44;;;16.17;46.02
82743;BME280;72483;50.656;7.216;2024-02-28T09:23:51;101666.13;;;16.15;45.93
82743;BME280;72483;50.656;7.216;2024-02-28T09:26:17;101665.63;;;16.18;46.07
82743;BME280;72483;50.656;7.216;2024-02-28T09:28:44;101664.78;;;16.18;45.83
82743;BME280;72483;50.656;7.216;2024-02-28T09:31:10;101664.78;;;16.18;46.00
82743;BME280;72483;50.656;7.216;2024-02-28T09:33:38;101668.91;;;16.15;46.00
82743;BME280;72483;50.656;7.216;2024-02-28T09:36:05;101674.22;;;16.17;46.38
82743;BME280;72483;50.656;7.216;2024-02-28T09:38:31;101684.22;;;16.18;45.98
82743;BME280;72483;50.656;7.216;2024-02-28T09:41:00;101693.94;;;16.15;46.31
82743;BME280;72483;50.656;7.216;2024-02-28T09:43:29;101691.72;;;16.17;46.22
82743;BME280;72483;50.656;7.216;2024-02-28T09:45:59;101685.34;;;16.17;46.07
82743;BME280;72483;50.656;7.216;2024-02-28T09:48:27;101687.00;;;16.18;45.94
82743;BME280;72483;50.656;7.216;2024-02-28T09:50:56;101697.03;;;16.19;45.95
82743;BME280;72483;50.656;7.216;2024-02-28T09:53:22;101699.81;;;16.19;46.25
82743;BME280;72483;50.656;7.216;2024-02-28T09:55:50;101689.78;;;16.18;46.00
82743;BME280;72483;50.656;7.216;2024-02-28T09:58:17;101697.03;;;16.19;46.29
82743;BME280;72483;50.656;7.216;2024-02-28T10:00:44;101697.03;;;16.19;45.95
82743;BME280;72483;50.656;7.216;2024-02-28T10:03:11;101693.41;;;16.18;46.33
82743;BME280;72483;50.656;7.216;2024-02-28T10:05:39;101694.50;;;16.17;45.88
82743;BME280;72483;50.656;7.216;2024-02-28T10:08:07;101696.47;;;16.17;46.08
82743;BME280;72483;50.656;7.216;2024-02-28T10:10:36;101698.13;;;16.18;46.26
82743;BME280;72483;50.656;7.216;2024-02-28T10:13:03;101699.25;;;16.17;46.28
82743;BME280;72483;50.656;7.216;2024-02-28T10:15:30;101688.72;;;16.19;46.33
82743;BME280;72483;50.656;7.216;2024-02-28T10:17:57;101687.00;;;16.18;46.01
82743;BME280;72483;50.656;7.216;2024-02-28T10:20:23;101686.16;;;16.17;46.44
82743;BME280;72483;50.656;7.216;2024-02-28T10:22:52;101696.19;;;16.18;46.04
82743;BME280;72483;50.656;7.216;2024-02-28T10:25:20;101689.56;;;16.19;46.07
82743;BME280;72483;50.656;7.216;2024-02-28T10:27:50;101688.13;;;16.17;46.12
82743;BME280;72483;50.656;7.216;2024-02-28T10:30:18;101688.13;;;16.17;45.88
82743;BME280;72483;50.656;7.216;2024-02-28T10:32:48;101679.78;;;16.17;45.87
82743;BME280;72483;50.656;7.216;2024-02-28T10:35:16;101678.69;;;16.18;46.16
82743;BME280;72483;50.656;7.216;2024-02-28T10:37:44;101677.81;;;16.17;46.21
82743;BME280;72483;50.656;7.216;2024-02-28T10:40:13;101669.75;;;16.16;45.79
82743;BME280;72483;50.656;7.216;2024-02-28T10:42:42;101666.13;;;16.15;46.31
82743;BME280;72483;50.656;7.216;2024-02-28T10:45:09;101675.31;;;16.16;46.18
82743;BME280;72483;50.656;7.216;2024-02-28T10:47:38;101668.41;;;16.18;46.16
82743;BME280;72483;50.656;7.216;2024-02-28T10:50:05;101668.66;;;16.17;46.24
82743;BME280;72483;50.656;7.216;2024-02-28T10:52:33;101666.13;;;16.15;45.96
82743;BME280;72483;50.656;7.216;2024-02-28T10:55:01;101661.16;;;16.17;45.81
82743;BME280;72483;50.656;7.216;2024-02-28T10:57:29;101654.78;;;16.17;45.89
82743;BME280;72483;50.656;7.216;2024-02-28T10:59:58;101655.59;;;16.17;46.12
82743;BME280;72483;50.656;7.216;2024-02-28T11:02:25;101651.16;;;16.16;46.00
82743;BME280;72483;50.656;7.216;2024-02-28T11:04:53;101650.31;;;16.16;46.28
82743;BME280;72483;50.656;7.216;2024-02-28T11:07:20;101643.66;;;16.17;45.93
82743;BME280;72483;50.656;7.216;2024-02-28T11:09:47;101652.81;;;16.17;46.31
82743;BME280;72483;50.656;7.216;2024-02-28T11:12:25;101643.66;;;16.17;46.10
82743;BME280;72483;50.656;7.216;2024-02-28T11:14:58;101644.47;;;16.17;46.01
82743;BME280;72483;50.656;7.216;2024-02-28T11:17:26;101643.91;;;16.15;45.91
82743;BME280;72483;50.656;7.216;2024-02-28T11:19:53;101637.50;;;16.15;46.12
82743;BME280;72483;50.656;7.216;2024-02-28T11:22:20;101637.50;;;16.15;46.37
82743;BME280;72483;50.656;7.216;2024-02-28T11:24:47;101636.63;;;16.14;46.15
82743;BME280;72483;50.656;7.216;2024-02-28T11:27:13;101637.50;;;16.15;46.22
82743;BME280;72483;50.656;7.216;2024-02-28T11:29:40;101643.03;;;16.15;46.21
82743;BME280;72483;50.656;7.216;2024-02-28T11:32:08;101629.41;;;16.13;46.12
82743;BME280;72483;50.656;7.216;2024-02-28T11:34:36;101639.41;;;16.14;46.20
82743;BME280;72483;50.656;7.216;2024-02-28T11:37:04;101631.94;;;16.15;46.03
82743;BME280;72483;50.656;7.216;2024-02-28T11:39:31;101629.75;;;16.17;46.39
82743;BME280;72483;50.656;7.216;2024-02-28T11:42:08;101631.94;;;16.15;46.44
82743;BME280;72483;50.656;7.216;2024-02-28T11:44:35;101615.25;;;16.15;46.02
82743;BME280;72483;50.656;7.216;2024-02-28T11:47:02;101621.66;;;16.15;46.15
82743;BME280;72483;50.656;7.216;2024-02-28T11:49:32;101609.84;;;16.08;46.52
82743;BME280;72483;50.656;7.216;2024-02-28T11:51:59;101613.56;;;16.14;46.16
82743;BME280;72483;50.656;7.216;2024-02-28T11:54:25;101613.31;;;16.15;46.24
82743;BME280;72483;50.656;7.216;2024-02-28T11:56:52;101609.69;;;16.15;46.22
82743;BME280;72483;50.656;7.216;2024-02-28T11:59:19;101594.38;;;16.12;46.41
82743;BME280;72483;50.656;7.216;2024-02-28T12:01:45;101593.00;;;16.15;46.23
82743;BME280;72483;50.656;7.216;2024-02-28T12:04:13;101593.00;;;16.15;46.42
82743;BME280;72483;50.656;7.216;2024-02-28T12:06:41;101590.22;;;16.15;46.19
82743;BME280;72483;50.656;7.216;2024-02-28T12:09:09;101583.59;;;16.16;46.09
82743;BME280;72483;50.656;7.216;2024-02-28T12:11:36;101575.75;;;16.13;46.41
82743;BME280;72483;50.656;7.216;2024-02-28T12:14:02;101577.19;;;16.15;46.19
82743;BME280;72483;50.656;7.216;2024-02-28T12:16:30;101574.16;;;16.17;46.35
82743;BME280;72483;50.656;7.216;2024-02-28T12:18:56;101570.78;;;16.15;46.47
82743;BME280;72483;50.656;7.216;2024-02-28T12:21:23;101568.59;;;16.17;46.38
82743;BME280;72483;50.656;7.216;2024-02-28T12:23:51;101561.34;;;16.16;46.49
82743;BME280;72483;50.656;7.216;2024-02-28T12:26:17;101553.03;;;16.16;46.42
82743;BME280;72483;50.656;7.216;2024-02-28T12:28:45;101547.47;;;16.16;46.21
82743;BME280;72483;50.656;7.216;2024-02-28T12:31:11;101552.16;;;16.15;46.13
82743;BME280;72483;50.656;7.216;2024-02-28T12:33:38;101555.78;;;16.16;46.42
82743;BME280;72483;50.656;7.216;2024-02-28T12:36:05;101549.16;;;16.17;46.64
82743;BME280;72483;50.656;7.216;2024-02-28T12:38:32;101540.22;;;16.15;46.43
82743;BME280;72483;50.656;7.216;2024-02-28T12:41:00;101541.06;;;16.15;46.54
82743;BME280;72483;50.656;7.216;2024-02-28T12:43:27;101543.84;;;16.15;46.29
82743;BME280;72483;50.656;7.216;2024-02-28T12:45:54;101544.69;;;16.16;46.51
82743;BME280;72483;50.656;7.216;2024-02-28T12:48:20;101549.38;;;16.15;46.55